WAT5326 KBHM-KDAY
Flight info
| Callsign | WAT5326 |
|---|---|
| Flight time | 1h 7m |
| Altitude | 37000 |
| Route | RHETT BNA IIU CVG HICKS FIITZ |
| Aircraft | CL60/M-SADE3FGHIJ3J4J7P2RWXY/HB1D1 |
Departure
| Time | 2026-05-09 00:55 |
|---|---|
| Airport | Birmingham-Shuttlesworth International Airport (KBHM) |
Arrival
| Time | 2026-05-09 02:02 |
|---|---|
| Airport | James M. Cox Dayton International Airport (KDAY) |
| Time | Latitude | Longitude | Altitude | Speed | Heading |
|---|---|---|---|---|---|
| 2026-05-09 00:31 | 33.56588 | -86.74236 | 636 ft | 0 kts | 165° |
| 2026-05-09 00:47 | 33.56585 | -86.74227 | 636 ft | 0 kts | 56° |
| 2026-05-09 00:47 | 33.56595 | -86.74242 | 636 ft | 4 kts | 269° |
| 2026-05-09 00:47 | 33.56595 | -86.74264 | 637 ft | 1 kts | 272° |
| 2026-05-09 00:48 | 33.56596 | -86.74278 | 637 ft | 1 kts | 274° |
| 2026-05-09 00:48 | 33.56605 | -86.74338 | 637 ft | 12 kts | 291° |
| 2026-05-09 00:48 | 33.56633 | -86.74399 | 636 ft | 8 kts | 296° |
| 2026-05-09 00:49 | 33.56641 | -86.74465 | 636 ft | 8 kts | 268° |
| 2026-05-09 00:49 | 33.56640 | -86.74523 | 635 ft | 1 kts | 268° |
| 2026-05-09 00:49 | 33.56642 | -86.74556 | 635 ft | 9 kts | 286° |
| 2026-05-09 00:49 | 33.56677 | -86.74591 | 635 ft | 6 kts | 0° |
| 2026-05-09 00:50 | 33.56723 | -86.74590 | 637 ft | 7 kts | 3° |
| 2026-05-09 00:50 | 33.56769 | -86.74572 | 638 ft | 6 kts | 39° |
| 2026-05-09 00:50 | 33.56819 | -86.74482 | 640 ft | 20 kts | 57° |
| 2026-05-09 00:50 | 33.56905 | -86.74332 | 643 ft | 22 kts | 56° |
| 2026-05-09 00:51 | 33.56998 | -86.74173 | 648 ft | 23 kts | 54° |
| 2026-05-09 00:51 | 33.57082 | -86.74025 | 654 ft | 18 kts | 56° |
| 2026-05-09 00:51 | 33.57142 | -86.73920 | 657 ft | 3 kts | 56° |
| 2026-05-09 00:51 | 33.57148 | -86.73910 | 657 ft | 0 kts | 55° |
| 2026-05-09 00:52 | 33.57192 | -86.73842 | 660 ft | 13 kts | 36° |
| 2026-05-09 00:52 | 33.57254 | -86.73850 | 663 ft | 0 kts | 325° |
| 2026-05-09 00:53 | 33.57255 | -86.73850 | 663 ft | 0 kts | 325° |
| 2026-05-09 00:54 | 33.57256 | -86.73851 | 663 ft | 2 kts | 326° |
| 2026-05-09 00:54 | 33.57293 | -86.73882 | 664 ft | 8 kts | 322° |
| 2026-05-09 00:54 | 33.57312 | -86.73972 | 662 ft | 16 kts | 242° |
| 2026-05-09 00:55 | 33.57076 | -86.74380 | 649 ft | 111 kts | 234° |
| 2026-05-09 00:55 | 33.56492 | -86.75408 | 843 ft | 171 kts | 236° |
| 2026-05-09 00:55 | 33.56009 | -86.76698 | 1823 ft | 178 kts | 253° |
| 2026-05-09 00:55 | 33.55868 | -86.78142 | 2917 ft | 185 kts | 264° |
| 2026-05-09 00:56 | 33.55836 | -86.79792 | 3646 ft | 206 kts | 266° |
| 2026-05-09 00:56 | 33.55815 | -86.81482 | 3941 ft | 201 kts | 266° |
| 2026-05-09 00:56 | 33.55791 | -86.83145 | 3991 ft | 197 kts | 266° |
| 2026-05-09 00:56 | 33.55819 | -86.84799 | 3993 ft | 208 kts | 277° |
| 2026-05-09 00:57 | 33.56475 | -86.86591 | 4309 ft | 259 kts | 307° |
| 2026-05-09 00:57 | 33.57983 | -86.87743 | 5514 ft | 272 kts | 342° |
| 2026-05-09 00:57 | 33.59855 | -86.87657 | 6833 ft | 281 kts | 13° |
| 2026-05-09 00:57 | 33.61713 | -86.86853 | 8031 ft | 287 kts | 18° |
| 2026-05-09 00:58 | 33.63560 | -86.85988 | 9296 ft | 296 kts | 18° |
| 2026-05-09 00:58 | 33.65488 | -86.85111 | 10769 ft | 299 kts | 16° |
| 2026-05-09 00:58 | 33.67422 | -86.84285 | 12150 ft | 304 kts | 14° |
| 2026-05-09 00:58 | 33.69411 | -86.83440 | 13467 ft | 309 kts | 13° |
| 2026-05-09 00:59 | 33.71437 | -86.82579 | 14799 ft | 312 kts | 13° |
| 2026-05-09 00:59 | 33.73461 | -86.81719 | 16048 ft | 315 kts | 12° |
| 2026-05-09 00:59 | 33.75559 | -86.80831 | 17035 ft | 326 kts | 12° |
| 2026-05-09 00:59 | 33.77821 | -86.79885 | 17279 ft | 361 kts | 13° |
| 2026-05-09 01:00 | 33.80251 | -86.78860 | 17893 ft | 380 kts | 13° |
| 2026-05-09 01:00 | 33.82803 | -86.77775 | 18725 ft | 391 kts | 12° |
| 2026-05-09 01:00 | 33.85350 | -86.76690 | 19592 ft | 398 kts | 12° |
| 2026-05-09 01:00 | 33.88018 | -86.75555 | 20401 ft | 406 kts | 11° |
| 2026-05-09 01:01 | 33.90676 | -86.74424 | 21148 ft | 414 kts | 10° |
| 2026-05-09 01:01 | 33.93423 | -86.73254 | 21958 ft | 420 kts | 10° |
| 2026-05-09 01:01 | 33.96204 | -86.72071 | 22680 ft | 426 kts | 9° |
| 2026-05-09 01:01 | 33.99015 | -86.70873 | 23387 ft | 434 kts | 9° |
| 2026-05-09 01:02 | 34.01899 | -86.69647 | 24067 ft | 441 kts | 9° |
| 2026-05-09 01:02 | 34.04845 | -86.68414 | 24605 ft | 448 kts | 6° |
| 2026-05-09 01:02 | 34.07864 | -86.67780 | 25252 ft | 431 kts | 351° |
| 2026-05-09 01:02 | 34.10886 | -86.67759 | 25711 ft | 438 kts | 348° |
| 2026-05-09 01:03 | 34.13973 | -86.67773 | 26344 ft | 444 kts | 348° |
| 2026-05-09 01:03 | 34.17058 | -86.67782 | 26972 ft | 448 kts | 347° |
| 2026-05-09 01:03 | 34.20226 | -86.67790 | 27573 ft | 449 kts | 347° |
| 2026-05-09 01:03 | 34.23386 | -86.67796 | 28113 ft | 451 kts | 347° |
| 2026-05-09 01:04 | 34.26540 | -86.67805 | 28630 ft | 454 kts | 347° |
| 2026-05-09 01:04 | 34.29746 | -86.67815 | 29187 ft | 455 kts | 346° |
| 2026-05-09 01:04 | 34.32797 | -86.67818 | 30001 ft | 449 kts | 346° |
| 2026-05-09 01:04 | 34.35910 | -86.67818 | 30958 ft | 440 kts | 345° |
| 2026-05-09 01:05 | 34.38922 | -86.67821 | 31739 ft | 436 kts | 345° |
| 2026-05-09 01:05 | 34.42006 | -86.67837 | 32191 ft | 440 kts | 345° |
| 2026-05-09 01:05 | 34.48159 | -86.67865 | 33096 ft | 447 kts | 345° |
| 2026-05-09 01:06 | 34.51317 | -86.67884 | 33432 ft | 453 kts | 345° |
| 2026-05-09 01:06 | 34.54483 | -86.67894 | 33994 ft | 454 kts | 345° |
| 2026-05-09 01:06 | 34.57618 | -86.67902 | 34651 ft | 451 kts | 345° |
| 2026-05-09 01:06 | 34.60752 | -86.67905 | 35468 ft | 444 kts | 344° |
| 2026-05-09 01:07 | 34.63811 | -86.67908 | 36247 ft | 436 kts | 343° |
| 2026-05-09 01:07 | 34.66805 | -86.67913 | 36874 ft | 433 kts | 343° |
| 2026-05-09 01:07 | 34.69847 | -86.67928 | 36986 ft | 434 kts | 343° |
| 2026-05-09 01:08 | 34.75892 | -86.67954 | 36986 ft | 437 kts | 343° |
| 2026-05-09 01:08 | 34.78973 | -86.67978 | 36991 ft | 448 kts | 344° |
| 2026-05-09 01:08 | 34.82121 | -86.68000 | 36977 ft | 458 kts | 344° |
| 2026-05-09 01:09 | 34.88646 | -86.68035 | 36980 ft | 474 kts | 345° |
| 2026-05-09 01:09 | 34.95304 | -86.68054 | 36981 ft | 478 kts | 345° |
| 2026-05-09 01:10 | 35.01957 | -86.68068 | 36973 ft | 478 kts | 345° |
| 2026-05-09 01:10 | 35.08605 | -86.68083 | 36982 ft | 476 kts | 345° |
| 2026-05-09 01:11 | 35.15210 | -86.68101 | 36971 ft | 475 kts | 345° |
| 2026-05-09 01:11 | 35.21643 | -86.68109 | 36965 ft | 464 kts | 344° |
| 2026-05-09 01:12 | 35.27815 | -86.68125 | 36959 ft | 459 kts | 344° |
| 2026-05-09 01:12 | 35.33816 | -86.68147 | 36959 ft | 459 kts | 344° |
| 2026-05-09 01:13 | 35.40271 | -86.68172 | 36965 ft | 459 kts | 344° |
| 2026-05-09 01:13 | 35.46659 | -86.68195 | 36958 ft | 458 kts | 344° |
| 2026-05-09 01:14 | 35.53046 | -86.68218 | 36965 ft | 459 kts | 344° |
| 2026-05-09 01:14 | 35.59444 | -86.68243 | 36961 ft | 460 kts | 345° |
| 2026-05-09 01:15 | 35.65870 | -86.68265 | 36955 ft | 460 kts | 345° |
| 2026-05-09 01:15 | 35.72263 | -86.68287 | 36954 ft | 461 kts | 345° |
| 2026-05-09 01:16 | 35.78692 | -86.68308 | 36961 ft | 460 kts | 345° |
| 2026-05-09 01:16 | 35.85093 | -86.68330 | 36963 ft | 460 kts | 344° |
| 2026-05-09 01:17 | 35.94736 | -86.68363 | 36962 ft | 460 kts | 345° |
| 2026-05-09 01:17 | 36.01117 | -86.68385 | 36959 ft | 460 kts | 344° |
| 2026-05-09 01:18 | 36.07589 | -86.68388 | 36954 ft | 464 kts | 346° |
| 2026-05-09 01:18 | 36.10844 | -86.68107 | 36946 ft | 477 kts | 352° |
| 2026-05-09 01:18 | 36.14153 | -86.67408 | 36950 ft | 490 kts | 359° |
| 2026-05-09 01:19 | 36.17499 | -86.66240 | 36951 ft | 504 kts | 6° |
| 2026-05-09 01:19 | 36.20416 | -86.64812 | 36947 ft | 515 kts | 11° |
| 2026-05-09 01:19 | 36.27001 | -86.61184 | 36951 ft | 516 kts | 12° |
| 2026-05-09 01:20 | 36.32964 | -86.57897 | 36948 ft | 515 kts | 12° |
| 2026-05-09 01:20 | 36.39534 | -86.54268 | 36953 ft | 515 kts | 12° |
| 2026-05-09 01:21 | 36.46102 | -86.50635 | 36953 ft | 515 kts | 12° |
| 2026-05-09 01:21 | 36.52678 | -86.46994 | 36936 ft | 514 kts | 12° |
| 2026-05-09 01:22 | 36.59191 | -86.43381 | 36936 ft | 514 kts | 12° |
| 2026-05-09 01:22 | 36.65732 | -86.39747 | 36925 ft | 513 kts | 12° |
| 2026-05-09 01:23 | 36.72263 | -86.36112 | 36928 ft | 512 kts | 12° |
| 2026-05-09 01:23 | 36.78785 | -86.32478 | 36927 ft | 512 kts | 12° |
| 2026-05-09 01:24 | 36.84655 | -86.29208 | 36920 ft | 513 kts | 13° |
| 2026-05-09 01:24 | 36.91095 | -86.25604 | 36934 ft | 513 kts | 12° |
| 2026-05-09 01:25 | 36.97672 | -86.21918 | 36924 ft | 513 kts | 13° |
| 2026-05-09 01:25 | 37.04189 | -86.18259 | 36939 ft | 513 kts | 13° |
| 2026-05-09 01:26 | 37.10692 | -86.14601 | 36927 ft | 513 kts | 12° |
| 2026-05-09 01:26 | 37.17061 | -86.11010 | 36923 ft | 512 kts | 13° |
| 2026-05-09 01:27 | 37.23177 | -86.07559 | 36915 ft | 511 kts | 13° |
| 2026-05-09 01:27 | 37.29639 | -86.03907 | 36920 ft | 512 kts | 13° |
| 2026-05-09 01:28 | 37.35583 | -86.00184 | 36902 ft | 523 kts | 20° |
| 2026-05-09 01:28 | 37.41866 | -85.95654 | 36905 ft | 517 kts | 17° |
| 2026-05-09 01:29 | 37.48221 | -85.91378 | 36911 ft | 517 kts | 17° |
| 2026-05-09 01:29 | 37.54606 | -85.87072 | 36913 ft | 518 kts | 17° |
| 2026-05-09 01:30 | 37.60942 | -85.82789 | 36924 ft | 518 kts | 17° |
| 2026-05-09 01:30 | 37.67290 | -85.78488 | 36916 ft | 517 kts | 17° |
| 2026-05-09 01:31 | 37.73660 | -85.74165 | 36910 ft | 516 kts | 17° |
| 2026-05-09 01:31 | 37.79939 | -85.69894 | 36923 ft | 515 kts | 17° |
| 2026-05-09 01:32 | 37.86291 | -85.65569 | 36917 ft | 517 kts | 17° |
| 2026-05-09 01:32 | 37.92620 | -85.61248 | 36912 ft | 516 kts | 17° |
| 2026-05-09 01:33 | 37.98974 | -85.56900 | 36914 ft | 515 kts | 17° |
| 2026-05-09 01:33 | 38.05243 | -85.52602 | 36918 ft | 514 kts | 17° |
| 2026-05-09 01:34 | 38.11441 | -85.48340 | 36763 ft | 503 kts | 17° |
| 2026-05-09 01:34 | 38.14502 | -85.46229 | 36227 ft | 501 kts | 17° |
| 2026-05-09 01:34 | 38.17450 | -85.44202 | 35474 ft | 503 kts | 17° |
| 2026-05-09 01:35 | 38.20528 | -85.42088 | 35023 ft | 505 kts | 17° |
| 2026-05-09 01:35 | 38.23119 | -85.40301 | 34924 ft | 507 kts | 17° |
| 2026-05-09 01:35 | 38.29337 | -85.36010 | 34894 ft | 512 kts | 18° |
| 2026-05-09 01:36 | 38.35601 | -85.31677 | 34887 ft | 513 kts | 18° |
| 2026-05-09 01:36 | 38.41430 | -85.27640 | 34900 ft | 514 kts | 18° |
| 2026-05-09 01:37 | 38.47519 | -85.23410 | 34673 ft | 505 kts | 18° |
| 2026-05-09 01:37 | 38.50609 | -85.21250 | 34390 ft | 496 kts | 18° |
| 2026-05-09 01:37 | 38.53579 | -85.19171 | 34285 ft | 481 kts | 18° |
| 2026-05-09 01:38 | 38.55862 | -85.17579 | 34135 ft | 471 kts | 17° |
| 2026-05-09 01:38 | 38.58673 | -85.15627 | 33897 ft | 464 kts | 18° |
| 2026-05-09 01:38 | 38.61424 | -85.13708 | 33444 ft | 462 kts | 17° |
| 2026-05-09 01:38 | 38.64230 | -85.11748 | 33079 ft | 457 kts | 17° |
| 2026-05-09 01:39 | 38.66997 | -85.09809 | 32748 ft | 451 kts | 18° |
| 2026-05-09 01:39 | 38.69723 | -85.07901 | 32343 ft | 447 kts | 18° |
| 2026-05-09 01:39 | 38.72437 | -85.06000 | 31970 ft | 443 kts | 18° |
| 2026-05-09 01:39 | 38.75115 | -85.04122 | 31636 ft | 437 kts | 18° |
| 2026-05-09 01:40 | 38.77765 | -85.02259 | 31304 ft | 431 kts | 18° |
| 2026-05-09 01:40 | 38.80368 | -85.00432 | 30916 ft | 428 kts | 19° |
| 2026-05-09 01:40 | 38.82962 | -84.98608 | 30543 ft | 423 kts | 18° |
| 2026-05-09 01:40 | 38.85551 | -84.96786 | 30188 ft | 419 kts | 19° |
| 2026-05-09 01:41 | 38.88069 | -84.95011 | 29717 ft | 411 kts | 19° |
| 2026-05-09 01:41 | 38.90595 | -84.93230 | 29078 ft | 408 kts | 19° |
| 2026-05-09 01:41 | 38.93052 | -84.91499 | 28504 ft | 403 kts | 19° |
| 2026-05-09 01:41 | 38.95504 | -84.89769 | 27841 ft | 399 kts | 19° |
| 2026-05-09 01:42 | 38.97915 | -84.88067 | 27216 ft | 395 kts | 19° |
| 2026-05-09 01:42 | 39.00277 | -84.86396 | 26672 ft | 388 kts | 20° |
| 2026-05-09 01:42 | 39.02648 | -84.84718 | 26064 ft | 384 kts | 20° |
| 2026-05-09 01:42 | 39.04975 | -84.83071 | 25429 ft | 380 kts | 20° |
| 2026-05-09 01:43 | 39.07271 | -84.81445 | 24802 ft | 377 kts | 20° |
| 2026-05-09 01:43 | 39.09541 | -84.79836 | 24187 ft | 372 kts | 20° |
| 2026-05-09 01:43 | 39.11720 | -84.78290 | 23616 ft | 368 kts | 21° |
| 2026-05-09 01:43 | 39.13883 | -84.76754 | 23042 ft | 363 kts | 21° |
| 2026-05-09 01:44 | 39.16085 | -84.75188 | 22422 ft | 358 kts | 21° |
| 2026-05-09 01:44 | 39.18152 | -84.73720 | 21798 ft | 355 kts | 21° |
| 2026-05-09 01:44 | 39.19765 | -84.72579 | 21306 ft | 353 kts | 21° |
| 2026-05-09 01:44 | 39.21867 | -84.71083 | 20739 ft | 347 kts | 21° |
| 2026-05-09 01:45 | 39.23971 | -84.69583 | 20120 ft | 343 kts | 21° |
| 2026-05-09 01:45 | 39.26026 | -84.68117 | 19502 ft | 339 kts | 22° |
| 2026-05-09 01:45 | 39.27400 | -84.67136 | 19075 ft | 337 kts | 22° |
| 2026-05-09 01:45 | 39.29266 | -84.65803 | 18535 ft | 333 kts | 22° |
| 2026-05-09 01:46 | 39.31404 | -84.64277 | 17891 ft | 329 kts | 22° |
| 2026-05-09 01:46 | 39.33400 | -84.62850 | 17323 ft | 325 kts | 22° |
| 2026-05-09 01:46 | 39.35356 | -84.61452 | 16765 ft | 320 kts | 22° |
| 2026-05-09 01:46 | 39.37294 | -84.60066 | 16160 ft | 318 kts | 22° |
| 2026-05-09 01:47 | 39.39232 | -84.58678 | 15589 ft | 314 kts | 22° |
| 2026-05-09 01:47 | 39.41118 | -84.57327 | 15039 ft | 310 kts | 22° |
| 2026-05-09 01:47 | 39.43014 | -84.55969 | 14445 ft | 308 kts | 22° |
| 2026-05-09 01:47 | 39.44858 | -84.54645 | 14055 ft | 300 kts | 22° |
| 2026-05-09 01:48 | 39.46711 | -84.53319 | 13997 ft | 305 kts | 22° |
| 2026-05-09 01:48 | 39.48581 | -84.51978 | 13965 ft | 305 kts | 22° |
| 2026-05-09 01:48 | 39.50317 | -84.50424 | 13927 ft | 305 kts | 38° |
| 2026-05-09 01:48 | 39.51769 | -84.48413 | 13502 ft | 309 kts | 42° |
| 2026-05-09 01:49 | 39.53208 | -84.46310 | 13015 ft | 311 kts | 42° |
| 2026-05-09 01:49 | 39.54632 | -84.44227 | 12596 ft | 311 kts | 43° |
| 2026-05-09 01:49 | 39.56060 | -84.42139 | 12192 ft | 310 kts | 42° |
| 2026-05-09 01:49 | 39.57487 | -84.40056 | 11760 ft | 309 kts | 43° |
| 2026-05-09 01:50 | 39.58918 | -84.37980 | 11333 ft | 309 kts | 42° |
| 2026-05-09 01:50 | 39.60339 | -84.35925 | 10972 ft | 305 kts | 43° |
| 2026-05-09 01:50 | 39.61721 | -84.33924 | 10552 ft | 305 kts | 43° |
| 2026-05-09 01:50 | 39.63107 | -84.31912 | 10090 ft | 305 kts | 43° |
| 2026-05-09 01:51 | 39.64496 | -84.29903 | 9613 ft | 300 kts | 43° |
| 2026-05-09 01:51 | 39.65885 | -84.27916 | 8992 ft | 299 kts | 43° |
| 2026-05-09 01:51 | 39.66634 | -84.26856 | 8663 ft | 298 kts | 43° |
| 2026-05-09 01:51 | 39.67993 | -84.24970 | 8238 ft | 289 kts | 43° |
| 2026-05-09 01:52 | 39.69370 | -84.23074 | 7569 ft | 290 kts | 43° |
| 2026-05-09 01:52 | 39.70754 | -84.21198 | 6943 ft | 289 kts | 43° |
| 2026-05-09 01:52 | 39.71833 | -84.19758 | 6432 ft | 289 kts | 43° |
| 2026-05-09 01:52 | 39.73222 | -84.17934 | 5867 ft | 285 kts | 43° |
| 2026-05-09 01:53 | 39.74585 | -84.16163 | 5247 ft | 284 kts | 43° |
| 2026-05-09 01:53 | 39.75970 | -84.14381 | 4618 ft | 283 kts | 43° |
| 2026-05-09 01:53 | 39.77326 | -84.12640 | 4139 ft | 278 kts | 43° |
| 2026-05-09 01:53 | 39.78698 | -84.10882 | 3977 ft | 280 kts | 43° |
| 2026-05-09 01:54 | 39.80083 | -84.09123 | 3958 ft | 281 kts | 43° |
| 2026-05-09 01:54 | 39.81457 | -84.07369 | 3964 ft | 282 kts | 43° |
| 2026-05-09 01:54 | 39.82827 | -84.05623 | 3965 ft | 282 kts | 42° |
| 2026-05-09 01:54 | 39.84214 | -84.03850 | 3997 ft | 284 kts | 43° |
| 2026-05-09 01:55 | 39.85631 | -84.02039 | 3976 ft | 283 kts | 43° |
| 2026-05-09 01:55 | 39.87020 | -84.00273 | 3967 ft | 282 kts | 42° |
| 2026-05-09 01:55 | 39.88432 | -83.98476 | 3969 ft | 282 kts | 42° |
| 2026-05-09 01:55 | 39.89825 | -83.96706 | 3973 ft | 279 kts | 42° |
| 2026-05-09 01:56 | 39.91260 | -83.94980 | 3972 ft | 278 kts | 32° |
| 2026-05-09 01:56 | 39.92994 | -83.94077 | 3980 ft | 260 kts | 0° |
| 2026-05-09 01:56 | 39.94658 | -83.94403 | 3814 ft | 229 kts | 329° |
| 2026-05-09 01:56 | 39.96042 | -83.95358 | 3408 ft | 222 kts | 323° |
| 2026-05-09 01:57 | 39.97369 | -83.96348 | 2983 ft | 219 kts | 324° |
| 2026-05-09 01:57 | 39.98666 | -83.97346 | 2616 ft | 215 kts | 324° |
| 2026-05-09 01:57 | 39.99887 | -83.98402 | 2503 ft | 200 kts | 312° |
| 2026-05-09 01:57 | 40.00471 | -83.99887 | 2493 ft | 177 kts | 272° |
| 2026-05-09 01:58 | 40.00450 | -84.01466 | 2484 ft | 176 kts | 264° |
| 2026-05-09 01:58 | 40.00348 | -84.03050 | 2473 ft | 176 kts | 263° |
| 2026-05-09 01:58 | 40.00024 | -84.04565 | 2470 ft | 176 kts | 242° |
| 2026-05-09 01:58 | 39.99372 | -84.05926 | 2469 ft | 176 kts | 238° |
| 2026-05-09 01:59 | 39.98698 | -84.07265 | 2470 ft | 176 kts | 238° |
| 2026-05-09 01:59 | 39.98013 | -84.08585 | 2472 ft | 176 kts | 237° |
| 2026-05-09 01:59 | 39.97315 | -84.09910 | 2469 ft | 175 kts | 237° |
| 2026-05-09 01:59 | 39.96630 | -84.11204 | 2468 ft | 172 kts | 237° |
| 2026-05-09 02:00 | 39.95948 | -84.12494 | 2442 ft | 169 kts | 237° |
| 2026-05-09 02:00 | 39.95288 | -84.13741 | 2375 ft | 170 kts | 237° |
| 2026-05-09 02:00 | 39.94625 | -84.14992 | 2192 ft | 166 kts | 236° |
| 2026-05-09 02:00 | 39.94001 | -84.16166 | 1998 ft | 148 kts | 237° |
| 2026-05-09 02:01 | 39.93470 | -84.17162 | 1843 ft | 124 kts | 236° |
| 2026-05-09 02:01 | 39.92989 | -84.18087 | 1640 ft | 121 kts | 236° |
| 2026-05-09 02:01 | 39.92511 | -84.18979 | 1437 ft | 120 kts | 234° |
| 2026-05-09 02:01 | 39.92033 | -84.19875 | 1282 ft | 120 kts | 234° |
| 2026-05-09 02:02 | 39.91550 | -84.20776 | 1145 ft | 121 kts | 234° |
| 2026-05-09 02:02 | 39.91072 | -84.21673 | 1021 ft | 115 kts | 233° |
| 2026-05-09 02:02 | 39.90665 | -84.22430 | 1000 ft | 84 kts | 236° |
| 2026-05-09 02:02 | 39.90458 | -84.22823 | 998 ft | 15 kts | 228° |
| 2026-05-09 02:03 | 39.90378 | -84.22796 | 998 ft | 14 kts | 144° |
| 2026-05-09 02:03 | 39.90362 | -84.22781 | 998 ft | 0 kts | 144° |
| 2026-05-09 02:04 | 39.90351 | -84.22756 | 999 ft | 7 kts | 89° |
| 2026-05-09 02:04 | 39.90390 | -84.22673 | 999 ft | 14 kts | 55° |
| 2026-05-09 02:04 | 39.90460 | -84.22540 | 999 ft | 20 kts | 55° |
| 2026-05-09 02:04 | 39.90551 | -84.22368 | 1000 ft | 24 kts | 55° |
| 2026-05-09 02:05 | 39.90656 | -84.22172 | 1000 ft | 28 kts | 56° |
| 2026-05-09 02:05 | 39.90778 | -84.21944 | 1001 ft | 23 kts | 57° |
| 2026-05-09 02:05 | 39.90851 | -84.21806 | 1001 ft | 18 kts | 54° |
| 2026-05-09 02:05 | 39.90844 | -84.21698 | 1001 ft | 16 kts | 142° |
| 2026-05-09 02:06 | 39.90774 | -84.21594 | 1001 ft | 18 kts | 112° |
| 2026-05-09 02:06 | 39.90765 | -84.21407 | 1000 ft | 21 kts | 89° |
| 2026-05-09 02:06 | 39.90769 | -84.21249 | 1000 ft | 16 kts | 89° |
| 2026-05-09 02:07 | 39.90768 | -84.20993 | 999 ft | 8 kts | 110° |
| 2026-05-09 02:07 | 39.90702 | -84.20960 | 1000 ft | 14 kts | 181° |
| 2026-05-09 02:07 | 39.90643 | -84.20947 | 1000 ft | 6 kts | 128° |
| 2026-05-09 02:07 | 39.90640 | -84.20919 | 1000 ft | 0 kts | 93° |